sensor_id;sensor_type;location;lat;lon;timestamp;P1;durP1;ratioP1;P2;durP2;ratioP2
59016;SDS011;44800;55.600;38.134;2023-07-24T00:00:55;11.77;;;6.32;;
59016;SDS011;44800;55.600;38.134;2023-07-24T00:03:24;11.25;;;6.90;;
59016;SDS011;44800;55.600;38.134;2023-07-24T00:05:52;11.50;;;6.82;;
59016;SDS011;44800;55.600;38.134;2023-07-24T00:08:21;10.90;;;7.07;;
59016;SDS011;44800;55.600;38.134;2023-07-24T00:10:49;10.07;;;6.32;;
59016;SDS011;44800;55.600;38.134;2023-07-24T00:13:18;8.68;;;6.18;;
59016;SDS011;44800;55.600;38.134;2023-07-24T00:15:48;7.38;;;6.10;;
59016;SDS011;44800;55.600;38.134;2023-07-24T00:18:16;11.05;;;6.95;;
59016;SDS011;44800;55.600;38.134;2023-07-24T00:20:44;11.68;;;6.45;;
59016;SDS011;44800;55.600;38.134;2023-07-24T00:23:13;11.48;;;6.88;;
59016;SDS011;44800;55.600;38.134;2023-07-24T00:25:41;9.73;;;5.22;;
59016;SDS011;44800;55.600;38.134;2023-07-24T00:28:10;18.90;;;6.70;;
59016;SDS011;44800;55.600;38.134;2023-07-24T00:30:38;9.32;;;5.85;;
59016;SDS011;44800;55.600;38.134;2023-07-24T00:33:08;9.65;;;6.30;;
59016;SDS011;44800;55.600;38.134;2023-07-24T00:35:37;11.57;;;6.25;;
59016;SDS011;44800;55.600;38.134;2023-07-24T00:38:06;9.30;;;6.32;;
59016;SDS011;44800;55.600;38.134;2023-07-24T00:40:34;11.02;;;6.25;;
59016;SDS011;44800;55.600;38.134;2023-07-24T00:43:03;11.30;;;6.15;;
59016;SDS011;44800;55.600;38.134;2023-07-24T00:45:31;7.97;;;5.80;;
59016;SDS011;44800;55.600;38.134;2023-07-24T00:47:59;11.13;;;6.57;;
59016;SDS011;44800;55.600;38.134;2023-07-24T00:50:30;9.50;;;5.65;;
59016;SDS011;44800;55.600;38.134;2023-07-24T00:52:58;10.20;;;6.30;;
59016;SDS011;44800;55.600;38.134;2023-07-24T00:55:26;10.23;;;6.80;;
59016;SDS011;44800;55.600;38.134;2023-07-24T00:57:56;10.57;;;6.82;;
59016;SDS011;44800;55.600;38.134;2023-07-24T01:00:26;8.23;;;6.22;;
59016;SDS011;44800;55.600;38.134;2023-07-24T01:02:55;9.52;;;7.22;;
59016;SDS011;44800;55.600;38.134;2023-07-24T01:05:24;11.68;;;7.45;;
59016;SDS011;44800;55.600;38.134;2023-07-24T01:07:54;12.02;;;6.18;;
59016;SDS011;44800;55.600;38.134;2023-07-24T01:10:23;12.65;;;6.25;;
59016;SDS011;44800;55.600;38.134;2023-07-24T01:12:53;10.80;;;7.38;;
59016;SDS011;44800;55.600;38.134;2023-07-24T01:15:28;14.57;;;7.53;;
59016;SDS011;44800;55.600;38.134;2023-07-24T01:17:59;16.47;;;6.93;;
59016;SDS011;44800;55.600;38.134;2023-07-24T01:20:28;13.02;;;7.30;;
59016;SDS011;44800;55.600;38.134;2023-07-24T01:23:02;9.55;;;6.40;;
59016;SDS011;44800;55.600;38.134;2023-07-24T01:25:45;11.73;;;6.95;;
59016;SDS011;44800;55.600;38.134;2023-07-24T01:28:20;13.35;;;7.13;;
59016;SDS011;44800;55.600;38.134;2023-07-24T01:30:48;14.57;;;7.40;;
59016;SDS011;44800;55.600;38.134;2023-07-24T01:33:18;8.85;;;6.68;;
59016;SDS011;44800;55.600;38.134;2023-07-24T01:35:47;23.00;;;7.03;;
59016;SDS011;44800;55.600;38.134;2023-07-24T01:38:18;10.20;;;5.85;;
59016;SDS011;44800;55.600;38.134;2023-07-24T01:40:48;11.98;;;6.75;;
59016;SDS011;44800;55.600;38.134;2023-07-24T01:43:17;11.10;;;6.47;;
59016;SDS011;44800;55.600;38.134;2023-07-24T01:45:45;13.02;;;9.15;;
59016;SDS011;44800;55.600;38.134;2023-07-24T01:48:14;12.73;;;6.30;;
59016;SDS011;44800;55.600;38.134;2023-07-24T01:50:42;11.57;;;6.80;;
59016;SDS011;44800;55.600;38.134;2023-07-24T01:53:11;12.88;;;7.20;;
59016;SDS011;44800;55.600;38.134;2023-07-24T01:55:39;9.65;;;5.78;;
59016;SDS011;44800;55.600;38.134;2023-07-24T01:58:09;14.70;;;7.07;;
59016;SDS011;44800;55.600;38.134;2023-07-24T02:00:38;11.57;;;6.13;;
59016;SDS011;44800;55.600;38.134;2023-07-24T02:03:06;9.95;;;5.68;;
59016;SDS011;44800;55.600;38.134;2023-07-24T02:05:34;12.25;;;7.05;;
59016;SDS011;44800;55.600;38.134;2023-07-24T02:08:03;11.18;;;5.93;;
59016;SDS011;44800;55.600;38.134;2023-07-24T02:10:31;14.23;;;6.80;;
59016;SDS011;44800;55.600;38.134;2023-07-24T02:13:00;10.90;;;6.50;;
59016;SDS011;44800;55.600;38.134;2023-07-24T02:15:30;13.70;;;6.65;;
59016;SDS011;44800;55.600;38.134;2023-07-24T02:17:58;11.35;;;6.57;;
59016;SDS011;44800;55.600;38.134;2023-07-24T02:20:27;13.77;;;6.95;;
59016;SDS011;44800;55.600;38.134;2023-07-24T02:22:55;11.65;;;6.43;;
59016;SDS011;44800;55.600;38.134;2023-07-24T02:25:23;13.77;;;6.20;;
59016;SDS011;44800;55.600;38.134;2023-07-24T02:27:52;11.13;;;5.97;;
59016;SDS011;44800;55.600;38.134;2023-07-24T02:30:20;12.60;;;7.10;;
59016;SDS011;44800;55.600;38.134;2023-07-24T02:32:50;10.32;;;6.40;;
59016;SDS011;44800;55.600;38.134;2023-07-24T02:35:19;11.50;;;6.80;;
59016;SDS011;44800;55.600;38.134;2023-07-24T02:37:47;9.93;;;5.55;;
59016;SDS011;44800;55.600;38.134;2023-07-24T02:40:15;9.95;;;5.97;;
59016;SDS011;44800;55.600;38.134;2023-07-24T02:42:45;10.65;;;6.15;;
59016;SDS011;44800;55.600;38.134;2023-07-24T02:45:14;7.10;;;5.45;;
59016;SDS011;44800;55.600;38.134;2023-07-24T02:47:42;11.52;;;6.32;;
59016;SDS011;44800;55.600;38.134;2023-07-24T02:50:12;10.20;;;6.40;;
59016;SDS011;44800;55.600;38.134;2023-07-24T02:52:40;10.48;;;6.32;;
59016;SDS011;44800;55.600;38.134;2023-07-24T02:55:08;9.65;;;5.93;;
59016;SDS011;44800;55.600;38.134;2023-07-24T02:57:37;9.18;;;5.95;;
59016;SDS011;44800;55.600;38.134;2023-07-24T03:00:06;12.13;;;6.05;;
59016;SDS011;44800;55.600;38.134;2023-07-24T03:02:35;11.15;;;7.13;;
59016;SDS011;44800;55.600;38.134;2023-07-24T03:05:04;9.27;;;6.88;;
59016;SDS011;44800;55.600;38.134;2023-07-24T03:07:34;13.43;;;6.82;;
59016;SDS011;44800;55.600;38.134;2023-07-24T03:10:03;15.98;;;7.13;;
59016;SDS011;44800;55.600;38.134;2023-07-24T03:12:31;13.77;;;7.93;;
59016;SDS011;44800;55.600;38.134;2023-07-24T03:15:00;11.85;;;7.85;;
59016;SDS011;44800;55.600;38.134;2023-07-24T03:17:29;13.50;;;6.93;;
59016;SDS011;44800;55.600;38.134;2023-07-24T03:19:58;12.70;;;7.07;;
59016;SDS011;44800;55.600;38.134;2023-07-24T03:22:27;14.23;;;6.93;;
59016;SDS011;44800;55.600;38.134;2023-07-24T03:24:57;11.88;;;7.22;;
59016;SDS011;44800;55.600;38.134;2023-07-24T03:27:25;18.13;;;8.70;;
59016;SDS011;44800;55.600;38.134;2023-07-24T03:29:54;15.80;;;8.20;;
59016;SDS011;44800;55.600;38.134;2023-07-24T03:32:22;13.90;;;7.82;;
59016;SDS011;44800;55.600;38.134;2023-07-24T03:34:51;11.65;;;7.15;;
59016;SDS011;44800;55.600;38.134;2023-07-24T03:37:20;13.82;;;7.70;;
59016;SDS011;44800;55.600;38.134;2023-07-24T03:39:48;12.75;;;8.43;;
59016;SDS011;44800;55.600;38.134;2023-07-24T03:42:25;13.50;;;6.68;;
59016;SDS011;44800;55.600;38.134;2023-07-24T03:44:54;11.32;;;6.47;;
59016;SDS011;44800;55.600;38.134;2023-07-24T03:47:23;23.75;;;8.65;;
59016;SDS011;44800;55.600;38.134;2023-07-24T03:49:52;12.20;;;6.97;;
59016;SDS011;44800;55.600;38.134;2023-07-24T03:52:21;8.73;;;6.20;;
59016;SDS011;44800;55.600;38.134;2023-07-24T03:54:50;11.77;;;7.18;;
59016;SDS011;44800;55.600;38.134;2023-07-24T03:57:19;8.68;;;5.32;;
59016;SDS011;44800;55.600;38.134;2023-07-24T03:59:49;12.38;;;6.85;;
59016;SDS011;44800;55.600;38.134;2023-07-24T04:02:17;13.10;;;6.35;;
59016;SDS011;44800;55.600;38.134;2023-07-24T04:04:45;9.63;;;6.22;;
59016;SDS011;44800;55.600;38.134;2023-07-24T04:07:15;13.05;;;6.25;;
59016;SDS011;44800;55.600;38.134;2023-07-24T04:09:43;11.23;;;6.47;;
59016;SDS011;44800;55.600;38.134;2023-07-24T04:12:12;9.27;;;6.00;;
59016;SDS011;44800;55.600;38.134;2023-07-24T04:14:40;11.50;;;6.88;;
59016;SDS011;44800;55.600;38.134;2023-07-24T04:17:10;9.40;;;6.57;;
59016;SDS011;44800;55.600;38.134;2023-07-24T04:19:38;10.60;;;6.72;;
59016;SDS011;44800;55.600;38.134;2023-07-24T04:22:07;7.25;;;5.78;;
59016;SDS011;44800;55.600;38.134;2023-07-24T04:24:36;10.93;;;6.07;;
59016;SDS011;44800;55.600;38.134;2023-07-24T04:27:05;10.15;;;5.38;;
59016;SDS011;44800;55.600;38.134;2023-07-24T04:29:33;14.65;;;7.30;;
59016;SDS011;44800;55.600;38.134;2023-07-24T04:32:01;13.95;;;6.90;;
59016;SDS011;44800;55.600;38.134;2023-07-24T04:34:32;13.05;;;6.63;;
59016;SDS011;44800;55.600;38.134;2023-07-24T04:37:00;9.13;;;7.03;;
59016;SDS011;44800;55.600;38.134;2023-07-24T04:39:29;10.07;;;6.63;;
59016;SDS011;44800;55.600;38.134;2023-07-24T04:41:58;18.85;;;7.10;;
59016;SDS011;44800;55.600;38.134;2023-07-24T04:44:26;14.73;;;6.90;;
59016;SDS011;44800;55.600;38.134;2023-07-24T04:46:55;13.27;;;7.63;;
59016;SDS011;44800;55.600;38.134;2023-07-24T04:49:23;11.80;;;6.20;;
59016;SDS011;44800;55.600;38.134;2023-07-24T04:51:53;10.98;;;6.72;;
59016;SDS011;44800;55.600;38.134;2023-07-24T04:54:23;12.40;;;6.15;;
59016;SDS011;44800;55.600;38.134;2023-07-24T04:56:51;9.63;;;5.00;;
59016;SDS011;44800;55.600;38.134;2023-07-24T04:59:19;11.73;;;6.45;;
59016;SDS011;44800;55.600;38.134;2023-07-24T05:01:48;12.00;;;5.47;;
59016;SDS011;44800;55.600;38.134;2023-07-24T05:04:16;9.55;;;7.07;;
59016;SDS011;44800;55.600;38.134;2023-07-24T05:06:45;8.38;;;5.80;;
59016;SDS011;44800;55.600;38.134;2023-07-24T05:09:15;9.85;;;5.50;;
59016;SDS011;44800;55.600;38.134;2023-07-24T05:11:43;7.55;;;5.20;;
59016;SDS011;44800;55.600;38.134;2023-07-24T05:14:12;11.57;;;5.60;;
59016;SDS011;44800;55.600;38.134;2023-07-24T05:16:41;7.30;;;4.97;;
59016;SDS011;44800;55.600;38.134;2023-07-24T05:19:10;7.95;;;5.32;;
59016;SDS011;44800;55.600;38.134;2023-07-24T05:21:38;11.23;;;4.97;;
59016;SDS011;44800;55.600;38.134;2023-07-24T05:24:07;9.38;;;5.75;;
59016;SDS011;44800;55.600;38.134;2023-07-24T05:26:38;8.77;;;4.90;;
59016;SDS011;44800;55.600;38.134;2023-07-24T05:29:06;5.80;;;4.63;;
59016;SDS011;44800;55.600;38.134;2023-07-24T05:31:35;9.50;;;4.60;;
59016;SDS011;44800;55.600;38.134;2023-07-24T05:34:03;7.05;;;4.82;;
59016;SDS011;44800;55.600;38.134;2023-07-24T05:39:00;5.95;;;3.92;;
59016;SDS011;44800;55.600;38.134;2023-07-24T05:41:28;6.78;;;4.03;;
59016;SDS011;44800;55.600;38.134;2023-07-24T05:43:58;6.10;;;4.07;;
59016;SDS011;44800;55.600;38.134;2023-07-24T05:46:27;5.82;;;4.32;;
59016;SDS011;44800;55.600;38.134;2023-07-24T05:48:55;9.75;;;4.85;;
59016;SDS011;44800;55.600;38.134;2023-07-24T05:51:24;8.85;;;4.47;;
59016;SDS011;44800;55.600;38.134;2023-07-24T05:53:52;9.18;;;4.25;;
59016;SDS011;44800;55.600;38.134;2023-07-24T05:56:21;6.63;;;3.63;;
59016;SDS011;44800;55.600;38.134;2023-07-24T05:58:50;5.47;;;3.72;;
59016;SDS011;44800;55.600;38.134;2023-07-24T06:01:20;11.43;;;4.20;;
59016;SDS011;44800;55.600;38.134;2023-07-24T06:03:48;6.43;;;3.67;;
59016;SDS011;44800;55.600;38.134;2023-07-24T06:06:17;15.13;;;3.90;;
59016;SDS011;44800;55.600;38.134;2023-07-24T06:08:46;6.50;;;4.05;;
59016;SDS011;44800;55.600;38.134;2023-07-24T06:11:15;9.18;;;3.58;;
59016;SDS011;44800;55.600;38.134;2023-07-24T06:13:44;7.97;;;4.20;;
59016;SDS011;44800;55.600;38.134;2023-07-24T06:16:13;7.80;;;3.70;;
59016;SDS011;44800;55.600;38.134;2023-07-24T06:18:43;7.60;;;4.10;;
59016;SDS011;44800;55.600;38.134;2023-07-24T06:21:12;6.35;;;4.05;;
59016;SDS011;44800;55.600;38.134;2023-07-24T06:23:41;5.40;;;3.25;;
59016;SDS011;44800;55.600;38.134;2023-07-24T06:26:09;6.05;;;2.83;;
59016;SDS011;44800;55.600;38.134;2023-07-24T06:28:38;8.73;;;3.97;;
59016;SDS011;44800;55.600;38.134;2023-07-24T06:31:07;9.07;;;3.55;;
59016;SDS011;44800;55.600;38.134;2023-07-24T06:33:35;8.93;;;3.95;;
59016;SDS011;44800;55.600;38.134;2023-07-24T06:36:08;7.55;;;3.70;;
59016;SDS011;44800;55.600;38.134;2023-07-24T06:38:37;5.70;;;3.58;;
59016;SDS011;44800;55.600;38.134;2023-07-24T06:41:05;5.22;;;3.08;;
59016;SDS011;44800;55.600;38.134;2023-07-24T06:43:34;20.48;;;4.07;;
59016;SDS011;44800;55.600;38.134;2023-07-24T06:46:03;10.30;;;3.92;;
59016;SDS011;44800;55.600;38.134;2023-07-24T06:48:32;10.43;;;2.50;;
59016;SDS011;44800;55.600;38.134;2023-07-24T06:51:01;13.70;;;4.10;;
59016;SDS011;44800;55.600;38.134;2023-07-24T06:53:31;8.85;;;3.22;;
59016;SDS011;44800;55.600;38.134;2023-07-24T06:55:59;6.25;;;3.30;;
59016;SDS011;44800;55.600;38.134;2023-07-24T06:58:28;7.82;;;3.13;;
59016;SDS011;44800;55.600;38.134;2023-07-24T07:00:56;6.20;;;3.22;;
59016;SDS011;44800;55.600;38.134;2023-07-24T07:03:25;4.95;;;3.10;;
59016;SDS011;44800;55.600;38.134;2023-07-24T07:05:58;5.28;;;3.30;;
59016;SDS011;44800;55.600;38.134;2023-07-24T07:08:26;6.30;;;3.50;;
59016;SDS011;44800;55.600;38.134;2023-07-24T07:10:57;8.35;;;3.28;;
59016;SDS011;44800;55.600;38.134;2023-07-24T07:13:25;18.75;;;4.20;;
59016;SDS011;44800;55.600;38.134;2023-07-24T07:15:54;6.75;;;2.95;;
59016;SDS011;44800;55.600;38.134;2023-07-24T07:18:22;13.40;;;4.07;;
59016;SDS011;44800;55.600;38.134;2023-07-24T07:20:51;6.93;;;3.38;;
59016;SDS011;44800;55.600;38.134;2023-07-24T07:23:21;5.88;;;3.15;;
59016;SDS011;44800;55.600;38.134;2023-07-24T07:25:50;6.00;;;3.03;;
59016;SDS011;44800;55.600;38.134;2023-07-24T07:28:20;3.58;;;2.38;;
59016;SDS011;44800;55.600;38.134;2023-07-24T07:30:48;6.28;;;2.97;;
59016;SDS011;44800;55.600;38.134;2023-07-24T07:33:17;6.45;;;3.10;;
59016;SDS011;44800;55.600;38.134;2023-07-24T07:35:48;4.55;;;3.08;;
59016;SDS011;44800;55.600;38.134;2023-07-24T07:38:17;3.47;;;2.67;;
59016;SDS011;44800;55.600;38.134;2023-07-24T07:40:45;6.57;;;3.17;;
59016;SDS011;44800;55.600;38.134;2023-07-24T07:43:13;5.53;;;3.17;;
59016;SDS011;44800;55.600;38.134;2023-07-24T07:45:43;7.18;;;3.40;;
59016;SDS011;44800;55.600;38.134;2023-07-24T07:48:12;7.63;;;3.63;;
59016;SDS011;44800;55.600;38.134;2023-07-24T07:50:40;10.00;;;3.88;;
59016;SDS011;44800;55.600;38.134;2023-07-24T07:53:08;5.68;;;3.17;;
59016;SDS011;44800;55.600;38.134;2023-07-24T07:55:37;8.98;;;3.50;;
59016;SDS011;44800;55.600;38.134;2023-07-24T07:58:06;6.43;;;3.25;;
59016;SDS011;44800;55.600;38.134;2023-07-24T08:00:34;10.43;;;4.07;;
59016;SDS011;44800;55.600;38.134;2023-07-24T08:03:06;6.53;;;3.67;;
59016;SDS011;44800;55.600;38.134;2023-07-24T08:05:34;7.38;;;3.75;;
59016;SDS011;44800;55.600;38.134;2023-07-24T08:08:04;10.35;;;3.70;;
59016;SDS011;44800;55.600;38.134;2023-07-24T08:10:32;6.82;;;3.20;;
59016;SDS011;44800;55.600;38.134;2023-07-24T08:13:01;8.00;;;3.33;;
59016;SDS011;44800;55.600;38.134;2023-07-24T08:15:29;6.88;;;3.60;;
59016;SDS011;44800;55.600;38.134;2023-07-24T08:18:02;7.35;;;2.80;;
59016;SDS011;44800;55.600;38.134;2023-07-24T08:20:34;6.10;;;3.58;;
59016;SDS011;44800;55.600;38.134;2023-07-24T08:23:03;9.98;;;3.85;;
59016;SDS011;44800;55.600;38.134;2023-07-24T08:25:32;7.88;;;3.30;;
59016;SDS011;44800;55.600;38.134;2023-07-24T08:28:00;5.65;;;3.78;;
59016;SDS011;44800;55.600;38.134;2023-07-24T08:30:32;9.43;;;3.75;;
59016;SDS011;44800;55.600;38.134;2023-07-24T08:33:00;9.18;;;3.55;;
59016;SDS011;44800;55.600;38.134;2023-07-24T08:35:28;4.90;;;3.30;;
59016;SDS011;44800;55.600;38.134;2023-07-24T08:37:58;8.48;;;3.40;;
59016;SDS011;44800;55.600;38.134;2023-07-24T08:40:27;9.35;;;4.05;;
59016;SDS011;44800;55.600;38.134;2023-07-24T08:42:56;8.55;;;4.07;;
59016;SDS011;44800;55.600;38.134;2023-07-24T08:45:24;7.43;;;3.50;;
59016;SDS011;44800;55.600;38.134;2023-07-24T08:47:53;10.48;;;4.40;;
59016;SDS011;44800;55.600;38.134;2023-07-24T08:50:23;5.85;;;3.30;;
59016;SDS011;44800;55.600;38.134;2023-07-24T08:52:51;10.05;;;3.75;;
59016;SDS011;44800;55.600;38.134;2023-07-24T08:55:21;6.18;;;3.90;;
59016;SDS011;44800;55.600;38.134;2023-07-24T08:57:50;6.53;;;3.97;;
59016;SDS011;44800;55.600;38.134;2023-07-24T09:00:19;12.13;;;4.07;;
59016;SDS011;44800;55.600;38.134;2023-07-24T09:02:47;8.07;;;3.40;;
59016;SDS011;44800;55.600;38.134;2023-07-24T09:05:16;7.82;;;4.28;;
59016;SDS011;44800;55.600;38.134;2023-07-24T09:07:45;9.68;;;3.88;;
59016;SDS011;44800;55.600;38.134;2023-07-24T09:10:14;4.80;;;3.53;;
59016;SDS011;44800;55.600;38.134;2023-07-24T09:12:45;8.65;;;3.78;;
59016;SDS011;44800;55.600;38.134;2023-07-24T09:15:14;8.15;;;3.97;;
59016;SDS011;44800;55.600;38.134;2023-07-24T09:17:49;7.15;;;4.22;;
59016;SDS011;44800;55.600;38.134;2023-07-24T09:20:19;10.00;;;4.38;;
59016;SDS011;44800;55.600;38.134;2023-07-24T09:22:51;9.27;;;3.63;;
59016;SDS011;44800;55.600;38.134;2023-07-24T09:25:41;9.60;;;4.88;;
59016;SDS011;44800;55.600;38.134;2023-07-24T09:28:12;9.27;;;4.88;;
59016;SDS011;44800;55.600;38.134;2023-07-24T09:30:50;8.65;;;4.63;;
59016;SDS011;44800;55.600;38.134;2023-07-24T09:33:19;10.40;;;4.95;;
59016;SDS011;44800;55.600;38.134;2023-07-24T09:35:56;14.40;;;5.32;;
59016;SDS011;44800;55.600;38.134;2023-07-24T09:38:26;16.35;;;5.85;;
59016;SDS011;44800;55.600;38.134;2023-07-24T09:40:56;13.70;;;6.50;;
59016;SDS011;44800;55.600;38.134;2023-07-24T09:43:27;12.70;;;5.75;;
59016;SDS011;44800;55.600;38.134;2023-07-24T09:46:07;9.77;;;4.88;;
59016;SDS011;44800;55.600;38.134;2023-07-24T09:48:37;10.07;;;5.63;;
59016;SDS011;44800;55.600;38.134;2023-07-24T09:51:26;11.23;;;6.65;;
59016;SDS011;44800;55.600;38.134;2023-07-24T09:53:58;9.18;;;4.82;;
59016;SDS011;44800;55.600;38.134;2023-07-24T09:56:30;13.00;;;5.45;;
59016;SDS011;44800;55.600;38.134;2023-07-24T09:59:18;14.95;;;7.60;;
59016;SDS011;44800;55.600;38.134;2023-07-24T10:01:47;17.25;;;8.88;;
59016;SDS011;44800;55.600;38.134;2023-07-24T10:04:18;14.52;;;8.38;;
59016;SDS011;44800;55.600;38.134;2023-07-24T10:06:47;17.52;;;8.43;;
59016;SDS011;44800;55.600;38.134;2023-07-24T10:09:16;14.20;;;8.80;;
59016;SDS011;44800;55.600;38.134;2023-07-24T10:11:48;11.80;;;7.75;;
59016;SDS011;44800;55.600;38.134;2023-07-24T10:14:17;14.23;;;8.85;;
59016;SDS011;44800;55.600;38.134;2023-07-24T10:16:47;12.70;;;9.15;;
59016;SDS011;44800;55.600;38.134;2023-07-24T10:19:16;14.10;;;10.95;;
59016;SDS011;44800;55.600;38.134;2023-07-24T10:21:45;15.55;;;8.23;;
59016;SDS011;44800;55.600;38.134;2023-07-24T10:24:14;11.98;;;8.18;;
59016;SDS011;44800;55.600;38.134;2023-07-24T10:27:02;11.30;;;8.07;;
59016;SDS011;44800;55.600;38.134;2023-07-24T10:29:35;10.35;;;7.03;;
59016;SDS011;44800;55.600;38.134;2023-07-24T10:32:04;13.45;;;7.93;;
59016;SDS011;44800;55.600;38.134;2023-07-24T10:34:44;8.32;;;7.32;;
59016;SDS011;44800;55.600;38.134;2023-07-24T10:37:12;14.93;;;7.15;;
59016;SDS011;44800;55.600;38.134;2023-07-24T10:39:41;14.75;;;6.57;;
59016;SDS011;44800;55.600;38.134;2023-07-24T10:42:10;9.50;;;5.63;;
59016;SDS011;44800;55.600;38.134;2023-07-24T10:44:41;10.10;;;5.32;;
59016;SDS011;44800;55.600;38.134;2023-07-24T10:47:09;14.13;;;5.78;;
59016;SDS011;44800;55.600;38.134;2023-07-24T10:49:42;17.48;;;6.50;;
59016;SDS011;44800;55.600;38.134;2023-07-24T10:52:10;11.18;;;6.70;;
59016;SDS011;44800;55.600;38.134;2023-07-24T10:54:39;10.35;;;5.05;;
59016;SDS011;44800;55.600;38.134;2023-07-24T10:57:07;9.32;;;5.68;;
59016;SDS011;44800;55.600;38.134;2023-07-24T10:59:37;18.02;;;7.47;;
59016;SDS011;44800;55.600;38.134;2023-07-24T11:02:08;10.43;;;6.47;;
59016;SDS011;44800;55.600;38.134;2023-07-24T11:04:37;15.52;;;7.30;;
59016;SDS011;44800;55.600;38.134;2023-07-24T11:07:05;11.13;;;7.07;;
59016;SDS011;44800;55.600;38.134;2023-07-24T11:09:34;7.80;;;5.65;;
59016;SDS011;44800;55.600;38.134;2023-07-24T11:12:11;9.25;;;6.15;;
59016;SDS011;44800;55.600;38.134;2023-07-24T11:14:47;9.35;;;5.70;;
59016;SDS011;44800;55.600;38.134;2023-07-24T11:17:22;10.70;;;5.97;;
59016;SDS011;44800;55.600;38.134;2023-07-24T11:19:50;7.85;;;4.88;;
59016;SDS011;44800;55.600;38.134;2023-07-24T11:22:21;8.82;;;5.10;;
59016;SDS011;44800;55.600;38.134;2023-07-24T11:24:50;8.57;;;5.97;;
59016;SDS011;44800;55.600;38.134;2023-07-24T11:27:18;8.23;;;4.95;;
59016;SDS011;44800;55.600;38.134;2023-07-24T11:29:47;8.55;;;5.22;;
59016;SDS011;44800;55.600;38.134;2023-07-24T11:32:17;8.77;;;5.43;;
59016;SDS011;44800;55.600;38.134;2023-07-24T11:34:48;8.45;;;4.80;;
59016;SDS011;44800;55.600;38.134;2023-07-24T11:37:17;9.63;;;5.50;;
59016;SDS011;44800;55.600;38.134;2023-07-24T11:39:54;8.50;;;4.63;;
59016;SDS011;44800;55.600;38.134;2023-07-24T11:42:24;9.15;;;5.55;;
59016;SDS011;44800;55.600;38.134;2023-07-24T11:44:54;9.70;;;5.28;;
59016;SDS011;44800;55.600;38.134;2023-07-24T11:47:22;10.27;;;5.78;;
59016;SDS011;44800;55.600;38.134;2023-07-24T11:49:59;10.48;;;5.95;;
59016;SDS011;44800;55.600;38.134;2023-07-24T11:52:37;11.05;;;6.05;;
59016;SDS011;44800;55.600;38.134;2023-07-24T11:55:07;8.90;;;5.47;;
59016;SDS011;44800;55.600;38.134;2023-07-24T11:57:36;8.38;;;5.30;;
59016;SDS011;44800;55.600;38.134;2023-07-24T12:00:05;8.85;;;6.35;;
59016;SDS011;44800;55.600;38.134;2023-07-24T12:02:45;9.95;;;6.20;;
59016;SDS011;44800;55.600;38.134;2023-07-24T12:05:15;12.50;;;6.57;;
59016;SDS011;44800;55.600;38.134;2023-07-24T12:07:44;14.02;;;8.00;;
59016;SDS011;44800;55.600;38.134;2023-07-24T12:10:13;13.38;;;7.40;;
59016;SDS011;44800;55.600;38.134;2023-07-24T12:12:52;9.18;;;6.65;;
59016;SDS011;44800;55.600;38.134;2023-07-24T12:15:21;9.70;;;6.55;;
59016;SDS011;44800;55.600;38.134;2023-07-24T12:17:49;12.73;;;6.88;;
59016;SDS011;44800;55.600;38.134;2023-07-24T12:20:19;13.88;;;6.78;;
59016;SDS011;44800;55.600;38.134;2023-07-24T12:22:48;15.35;;;7.57;;
59016;SDS011;44800;55.600;38.134;2023-07-24T12:25:17;20.33;;;12.25;;
59016;SDS011;44800;55.600;38.134;2023-07-24T12:27:46;9.88;;;6.25;;
59016;SDS011;44800;55.600;38.134;2023-07-24T12:30:15;10.65;;;6.68;;
59016;SDS011;44800;55.600;38.134;2023-07-24T12:32:43;10.77;;;5.80;;
59016;SDS011;44800;55.600;38.134;2023-07-24T12:35:12;16.30;;;8.02;;
59016;SDS011;44800;55.600;38.134;2023-07-24T12:37:44;10.70;;;6.93;;
59016;SDS011;44800;55.600;38.134;2023-07-24T12:40:13;11.93;;;6.85;;
59016;SDS011;44800;55.600;38.134;2023-07-24T12:42:41;18.13;;;8.48;;
59016;SDS011;44800;55.600;38.134;2023-07-24T12:45:10;12.02;;;6.68;;
59016;SDS011;44800;55.600;38.134;2023-07-24T12:47:38;15.02;;;7.93;;
59016;SDS011;44800;55.600;38.134;2023-07-24T12:50:07;13.52;;;8.48;;
59016;SDS011;44800;55.600;38.134;2023-07-24T12:52:36;11.50;;;7.88;;
59016;SDS011;44800;55.600;38.134;2023-07-24T12:55:07;17.77;;;8.13;;
59016;SDS011;44800;55.600;38.134;2023-07-24T12:57:36;13.75;;;8.93;;
59016;SDS011;44800;55.600;38.134;2023-07-24T13:00:05;19.50;;;11.02;;
59016;SDS011;44800;55.600;38.134;2023-07-24T13:02:35;22.70;;;12.10;;
59016;SDS011;44800;55.600;38.134;2023-07-24T13:05:04;22.73;;;12.18;;
59016;SDS011;44800;55.600;38.134;2023-07-24T13:07:33;22.13;;;11.10;;
59016;SDS011;44800;55.600;38.134;2023-07-24T13:10:01;18.67;;;10.90;;
59016;SDS011;44800;55.600;38.134;2023-07-24T13:12:32;16.17;;;8.98;;
59016;SDS011;44800;55.600;38.134;2023-07-24T13:15:00;16.52;;;9.77;;
59016;SDS011;44800;55.600;38.134;2023-07-24T13:17:29;12.75;;;9.07;;
59016;SDS011;44800;55.600;38.134;2023-07-24T13:19:58;14.52;;;9.70;;
59016;SDS011;44800;55.600;38.134;2023-07-24T13:22:27;13.25;;;8.65;;
59016;SDS011;44800;55.600;38.134;2023-07-24T13:24:56;15.25;;;9.38;;
59016;SDS011;44800;55.600;38.134;2023-07-24T13:27:24;14.25;;;9.05;;
59016;SDS011;44800;55.600;38.134;2023-07-24T13:29:54;17.48;;;9.32;;
59016;SDS011;44800;55.600;38.134;2023-07-24T13:32:23;15.43;;;9.30;;
59016;SDS011;44800;55.600;38.134;2023-07-24T13:34:52;15.45;;;9.88;;
59016;SDS011;44800;55.600;38.134;2023-07-24T13:37:21;16.90;;;10.52;;
59016;SDS011;44800;55.600;38.134;2023-07-24T13:39:52;17.50;;;10.38;;
59016;SDS011;44800;55.600;38.134;2023-07-24T13:42:20;16.98;;;11.80;;
59016;SDS011;44800;55.600;38.134;2023-07-24T13:44:48;20.02;;;11.95;;
59016;SDS011;44800;55.600;38.134;2023-07-24T13:47:19;22.95;;;13.60;;
59016;SDS011;44800;55.600;38.134;2023-07-24T13:52:19;17.05;;;10.30;;
59016;SDS011;44800;55.600;38.134;2023-07-24T13:54:47;20.83;;;10.43;;
59016;SDS011;44800;55.600;38.134;2023-07-24T13:57:16;24.38;;;11.73;;
59016;SDS011;44800;55.600;38.134;2023-07-24T13:59:44;18.48;;;13.73;;
59016;SDS011;44800;55.600;38.134;2023-07-24T14:02:12;19.10;;;11.55;;
59016;SDS011;44800;55.600;38.134;2023-07-24T14:04:42;16.63;;;11.05;;
59016;SDS011;44800;55.600;38.134;2023-07-24T14:07:11;16.98;;;12.68;;
59016;SDS011;44800;55.600;38.134;2023-07-24T14:09:40;16.20;;;10.50;;
59016;SDS011;44800;55.600;38.134;2023-07-24T14:12:10;18.35;;;11.65;;
59016;SDS011;44800;55.600;38.134;2023-07-24T14:14:38;17.38;;;8.98;;
59016;SDS011;44800;55.600;38.134;2023-07-24T14:17:07;22.33;;;11.70;;
59016;SDS011;44800;55.600;38.134;2023-07-24T14:19:35;21.52;;;12.18;;
59016;SDS011;44800;55.600;38.134;2023-07-24T14:22:06;25.45;;;12.60;;
59016;SDS011;44800;55.600;38.134;2023-07-24T14:24:35;23.27;;;13.10;;
59016;SDS011;44800;55.600;38.134;2023-07-24T14:27:04;18.85;;;12.98;;
59016;SDS011;44800;55.600;38.134;2023-07-24T14:29:32;20.55;;;12.23;;
59016;SDS011;44800;55.600;38.134;2023-07-24T14:32:01;21.27;;;12.32;;
59016;SDS011;44800;55.600;38.134;2023-07-24T14:34:29;20.80;;;12.07;;
59016;SDS011;44800;55.600;38.134;2023-07-24T14:36:58;17.98;;;10.25;;
59016;SDS011;44800;55.600;38.134;2023-07-24T14:39:27;17.10;;;10.60;;
59016;SDS011;44800;55.600;38.134;2023-07-24T14:41:56;15.07;;;10.05;;
59016;SDS011;44800;55.600;38.134;2023-07-24T14:44:24;16.55;;;11.43;;